Time;durP1;ratioP1;P1;durP2;ratioP2;P2;SDS_P1;SDS_P2;PMS_P1;PMS_P2;Temp;Humidity;BMP_temperature;BMP_pressure;BME280_temperature;BME280_humidity;BME280_pressure;Samples;Min_cycle;Max_cycle;Signal;HPM_P1;HPM_P2
2022/01/03 00:01:46;;;;;;;10.50;5.40;;;;;;;0.17;82.77;98598.84;1683213;85;20984;-68
2022/01/03 00:04:15;;;;;;;8.45;4.55;;;;;;;0.19;82.96;98596.13;1684167;85;21003;-68
2022/01/03 00:06:46;;;;;;;8.18;5.42;;;;;;;0.21;83.11;98589.08;1682800;85;21005;-68
2022/01/03 00:09:12;;;;;;;8.28;5.10;;;;;;;0.23;83.51;98579.59;1683541;85;20972;-68
2022/01/03 00:11:40;;;;;;;9.55;5.30;;;;;;;0.23;83.74;98581.48;1682542;85;20888;-68
2022/01/03 00:14:09;;;;;;;10.15;5.50;;;;;;;0.22;84.19;98564.41;1682599;85;21552;-66
2022/01/03 00:16:38;;;;;;;9.20;4.85;;;;;;;0.26;84.78;98572.02;1682414;85;20988;-67
2022/01/03 00:19:04;;;;;;;9.75;5.40;;;;;;;0.26;85.06;98552.48;1683213;85;21502;-68
2022/01/03 00:21:45;;;;;;;6.72;4.65;;;;;;;0.29;85.60;98555.98;1682965;85;21436;-67
2022/01/03 00:24:12;;;;;;;8.73;5.20;;;;;;;0.32;85.85;98549.22;1682659;85;21079;-68
2022/01/03 00:26:40;;;;;;;9.15;6.12;;;;;;;0.32;86.07;98541.09;1683125;85;21055;-68
2022/01/03 00:29:15;;;;;;;11.57;6.00;;;;;;;0.32;86.57;98531.07;1683960;85;21032;-64
2022/01/03 00:31:42;;;;;;;16.23;5.80;;;;;;;0.33;86.94;98535.92;1683011;85;21062;-68
2022/01/03 00:34:13;;;;;;;10.70;5.75;;;;;;;0.32;87.29;98519.41;1682362;85;21420;-65
2022/01/03 00:36:40;;;;;;;7.03;4.75;;;;;;;0.33;87.74;98500.69;1684122;84;21409;-69
2022/01/03 00:39:08;;;;;;;9.43;5.80;;;;;;;0.34;88.20;98496.91;1682201;85;21089;-65
2022/01/03 00:41:39;;;;;;;9.25;5.67;;;;;;;0.36;88.49;98487.94;1682794;85;21079;-67
2022/01/03 00:44:06;;;;;;;10.68;5.95;;;;;;;0.39;88.91;98483.34;1682890;85;21195;-69
2022/01/03 00:46:33;;;;;;;11.78;5.92;;;;;;;0.41;89.20;98466.80;1683214;85;20896;-65
2022/01/03 00:49:03;;;;;;;11.20;6.40;;;;;;;0.44;89.51;98458.10;1682975;85;20980;-66
2022/01/03 00:51:32;;;;;;;13.20;5.90;;;;;;;0.45;89.77;98447.52;1684022;85;20948;-67
2022/01/03 00:53:59;;;;;;;10.13;6.05;;;;;;;0.48;90.15;98432.04;1683037;85;20877;-65
2022/01/03 00:56:31;;;;;;;13.22;6.62;;;;;;;0.50;90.51;98427.69;1682494;85;21032;-66
2022/01/03 00:59:15;;;;;;;12.98;6.80;;;;;;;0.52;90.75;98435.83;1678636;85;20916;-67
2022/01/03 01:01:51;;;;;;;10.78;6.58;;;;;;;0.56;91.08;98429.30;1680082;85;21051;-68
2022/01/03 01:04:22;;;;;;;10.00;6.10;;;;;;;0.59;91.29;98412.47;1681938;85;21117;-67
2022/01/03 01:06:56;;;;;;;10.08;6.47;;;;;;;0.59;91.48;98392.95;1684044;85;20989;-67
2022/01/03 01:09:25;;;;;;;9.68;5.95;;;;;;;0.62;91.86;98397.52;1682854;85;21126;-66
2022/01/03 01:11:54;;;;;;;10.15;6.33;;;;;;;0.66;92.12;98413.51;1682687;85;20961;-68
2022/01/03 01:14:24;;;;;;;10.15;6.37;;;;;;;0.68;92.36;98429.75;1682760;85;20968;-66
2022/01/03 01:16:52;;;;;;;14.20;7.08;;;;;;;0.68;92.59;98390.42;1682862;84;21520;-66
2022/01/03 01:19:20;;;;;;;9.75;6.37;;;;;;;0.69;92.87;98373.62;1683164;85;21060;-66
2022/01/03 01:21:50;;;;;;;12.07;6.55;;;;;;;0.70;93.08;98362.48;1683007;84;22043;-63
2022/01/03 01:24:18;;;;;;;10.25;6.62;;;;;;;0.73;93.32;98348.92;1682766;85;21119;-66
2022/01/03 01:29:29;;;;;;;9.03;6.20;;;;;;;0.79;93.68;98349.14;1682972;85;20901;-66
2022/01/03 01:31:59;;;;;;;10.35;6.50;;;;;;;0.80;93.91;98349.39;1682088;84;21032;-67
2022/01/03 01:34:28;;;;;;;10.05;6.35;;;;;;;0.81;94.03;98325.27;1683343;85;21906;-66
2022/01/03 01:36:59;;;;;;;9.25;5.72;;;;;;;0.84;94.35;98334.72;1683025;85;21409;-63
2022/01/03 01:39:29;;;;;;;10.55;7.05;;;;;;;0.87;94.52;98346.35;1683797;85;21012;-67
2022/01/03 01:41:59;;;;;;;10.08;6.33;;;;;;;0.87;94.65;98330.08;1683040;85;21019;-67
2022/01/03 01:44:26;;;;;;;11.30;6.80;;;;;;;0.89;94.90;98323.83;1683520;85;21060;-67
2022/01/03 01:46:57;;;;;;;14.05;7.58;;;;;;;0.91;95.10;98316.22;1683050;85;21859;-68
2022/01/03 01:49:26;;;;;;;17.60;8.58;;;;;;;0.94;95.37;98330.56;1682325;85;21771;-66
2022/01/03 01:51:59;;;;;;;13.98;6.92;;;;;;;0.95;95.50;98311.85;1682481;85;20976;-66
2022/01/03 01:54:35;;;;;;;12.35;6.83;;;;;;;0.97;95.63;98315.06;1713386;81;21018;-67
2022/01/03 01:57:20;;;;;;;12.55;7.50;;;;;;;1.00;95.90;98303.39;1715124;82;21072;-66
2022/01/03 02:00:08;;;;;;;12.82;7.08;;;;;;;1.01;96.05;98300.39;1715168;83;21072;-67
2022/01/03 02:02:57;;;;;;;12.90;7.60;;;;;;;1.02;96.24;98291.17;1715358;83;21044;-66
2022/01/03 02:05:43;;;;;;;11.50;6.35;;;;;;;1.03;96.36;98285.17;1713026;83;20992;-65
2022/01/03 02:08:29;;;;;;;12.50;6.78;;;;;;;1.05;96.60;98272.95;1715683;82;21576;-67
2022/01/03 02:11:20;;;;;;;10.70;6.75;;;;;;;1.08;96.79;98264.77;1715693;83;21052;-67
2022/01/03 02:13:47;;;;;;;11.20;7.33;;;;;;;1.11;96.81;98266.12;1712780;82;21203;-65
2022/01/03 02:16:14;;;;;;;13.93;8.35;;;;;;;1.11;96.90;98264.20;1715444;83;21039;-66
2022/01/03 02:18:44;;;;;;;12.80;8.25;;;;;;;1.14;96.94;98245.19;1710408;82;21060;-65
2022/01/03 02:21:12;;;;;;;14.55;8.35;;;;;;;1.16;97.05;98246.50;1715517;82;21555;-64
2022/01/03 02:23:40;;;;;;;12.15;8.13;;;;;;;1.17;97.08;98238.64;1713558;83;21480;-66
2022/01/03 02:26:07;;;;;;;12.23;6.97;;;;;;;1.20;97.14;98232.63;1715116;82;21113;-66
2022/01/03 02:28:35;;;;;;;12.73;7.12;;;;;;;1.21;97.19;98249.16;1713869;82;20964;-66
2022/01/03 02:31:04;;;;;;;12.50;7.42;;;;;;;1.23;97.39;98225.02;1713906;83;21440;-67
2022/01/03 02:33:32;;;;;;;13.15;8.38;;;;;;;1.25;97.60;98235.82;1712578;82;20953;-66
2022/01/03 02:36:05;;;;;;;12.88;7.90;;;;;;;1.29;97.84;98233.34;1712245;82;20973;-63
2022/01/03 02:38:31;;;;;;;14.80;7.60;;;;;;;1.33;98.10;98224.89;1712728;82;21132;-67
2022/01/03 02:40:58;;;;;;;12.40;8.28;;;;;;;1.37;98.17;98210.98;1710557;83;21064;-67
2022/01/03 02:43:25;;;;;;;14.87;8.60;;;;;;;1.40;98.20;98197.39;1706995;82;20965;-68
2022/01/03 02:45:53;;;;;;;18.57;9.68;;;;;;;1.42;98.22;98189.20;1714750;82;21527;-67
2022/01/03 02:48:23;;;;;;;14.87;9.10;;;;;;;1.43;98.33;98173.16;1713707;83;20952;-66
2022/01/03 02:50:50;;;;;;;18.17;8.48;;;;;;;1.44;98.29;98165.28;1715541;82;21148;-67
2022/01/03 02:53:17;;;;;;;15.15;8.65;;;;;;;1.44;98.31;98143.56;1711109;82;21497;-67
2022/01/03 02:55:43;;;;;;;23.73;9.98;;;;;;;1.45;98.45;98145.74;1713283;83;21055;-66
2022/01/03 02:58:10;;;;;;;18.37;10.40;;;;;;;1.50;98.72;98149.71;1712829;82;21538;-67
2022/01/03 03:00:47;;;;;;;14.93;9.05;;;;;;;1.53;98.77;98133.41;1716256;83;20966;-66
2022/01/03 03:03:16;;;;;;;10.55;7.33;;;;;;;1.57;98.91;98109.43;1716918;83;21169;-67
2022/01/03 03:05:43;;;;;;;12.88;7.58;;;;;;;1.61;98.98;98104.22;1714960;83;20952;-67
2022/01/03 03:08:12;;;;;;;17.80;9.53;;;;;;;1.63;99.05;98106.09;1713746;83;21460;-67
2022/01/03 03:10:40;;;;;;;11.35;7.85;;;;;;;1.66;98.99;98125.87;1715188;83;21013;-67
2022/01/03 03:13:07;;;;;;;12.13;8.00;;;;;;;1.69;98.96;98162.48;1712387;82;20960;-65
2022/01/03 03:15:34;;;;;;;14.58;7.90;;;;;;;1.70;99.03;98148.64;1715206;83;21289;-67
2022/01/03 03:18:02;;;;;;;13.75;8.33;;;;;;;1.72;99.02;98139.38;1715140;82;21062;-66
2022/01/03 03:20:30;;;;;;;15.03;8.80;;;;;;;1.73;99.02;98121.96;1713162;82;21115;-66
2022/01/03 03:22:58;;;;;;;12.50;8.18;;;;;;;1.75;99.07;98112.98;1713418;83;20928;-66
2022/01/03 03:25:29;;;;;;;13.40;9.13;;;;;;;1.78;99.26;98113.73;1713674;82;21048;-67
2022/01/03 03:28:01;;;;;;;13.48;8.20;;;;;;;1.82;99.32;98102.55;1710104;83;22111;-66
2022/01/03 03:30:32;;;;;;;14.43;8.70;;;;;;;1.85;99.37;98097.88;1713833;83;21245;-64
2022/01/03 03:33:09;;;;;;;14.45;8.55;;;;;;;1.90;99.50;98097.80;1715239;82;21039;-66
2022/01/03 03:35:38;;;;;;;14.63;8.53;;;;;;;1.96;99.62;98106.67;1714271;82;21008;-66
2022/01/03 03:38:06;;;;;;;13.88;8.33;;;;;;;2.02;99.69;98112.81;1713080;82;21019;-67
2022/01/03 03:40:32;;;;;;;14.05;8.45;;;;;;;2.08;99.66;98103.48;1713144;82;21111;-66
2022/01/03 03:42:59;;;;;;;12.70;7.85;;;;;;;2.11;99.52;98098.81;1715104;83;20972;-66
2022/01/03 03:45:27;;;;;;;13.32;8.55;;;;;;;2.13;99.53;98091.72;1713306;82;21056;-68
2022/01/03 03:47:55;;;;;;;15.18;8.33;;;;;;;2.13;99.55;98091.14;1715718;83;21079;-66
2022/01/03 03:50:21;;;;;;;12.75;7.75;;;;;;;2.15;99.82;98079.42;1707970;82;21075;-68
2022/01/03 03:52:49;;;;;;;13.30;9.20;;;;;;;2.17;99.86;98084.02;1713846;82;21635;-65
2022/01/03 03:55:15;;;;;;;13.00;8.00;;;;;;;2.20;99.95;98089.42;1714810;83;21012;-67
2022/01/03 03:57:42;;;;;;;12.00;8.00;;;;;;;2.25;100.00;98090.66;1717722;83;21044;-67
2022/01/03 04:00:13;;;;;;;13.78;8.53;;;;;;;2.30;100.00;98075.62;1713575;82;21072;-67
2022/01/03 04:02:44;;;;;;;12.82;8.23;;;;;;;2.33;100.00;98068.79;1713194;82;20944;-67
2022/01/03 04:05:13;;;;;;;13.88;7.87;;;;;;;2.35;100.00;98058.42;1711192;83;21145;-67
2022/01/03 04:07:41;;;;;;;17.50;8.85;;;;;;;2.37;100.00;98068.42;1710379;83;21130;-67
2022/01/03 04:10:10;;;;;;;14.63;8.78;;;;;;;2.38;100.00;98042.87;1719044;83;21538;-66
2022/01/03 04:12:39;;;;;;;13.28;8.23;;;;;;;2.40;100.00;98039.84;1714505;82;20980;-66
2022/01/03 04:15:07;;;;;;;16.10;9.03;;;;;;;2.39;100.00;98031.45;1716087;83;21005;-66
2022/01/03 04:17:33;;;;;;;17.10;9.38;;;;;;;2.38;100.00;98018.39;1714565;83;21132;-67
2022/01/03 04:20:00;;;;;;;13.08;8.68;;;;;;;2.39;100.00;98016.49;1711403;82;20977;-69
2022/01/03 04:22:27;;;;;;;16.25;8.43;;;;;;;2.39;100.00;98008.34;1715086;82;21007;-67
2022/01/03 04:24:53;;;;;;;17.82;9.33;;;;;;;2.36;100.00;98009.73;1717244;83;21031;-67
2022/01/03 04:27:20;;;;;;;15.45;8.85;;;;;;;2.35;100.00;97999.97;1713139;83;21444;-68
2022/01/03 04:29:47;;;;;;;15.45;8.78;;;;;;;2.33;100.00;98000.02;1713054;82;21755;-66
2022/01/03 04:32:15;;;;;;;15.38;9.45;;;;;;;2.30;100.00;97996.00;1711782;82;21020;-66
2022/01/03 04:34:42;;;;;;;11.68;8.30;;;;;;;2.31;100.00;97984.00;1713151;82;21011;-64
2022/01/03 04:37:10;;;;;;;13.43;9.50;;;;;;;2.35;100.00;97982.30;1713351;82;21560;-67
2022/01/03 04:39:37;;;;;;;17.40;9.23;;;;;;;2.39;100.00;97990.66;1712260;82;21497;-67
2022/01/03 04:42:04;;;;;;;17.65;10.55;;;;;;;2.41;100.00;97985.16;1713402;82;21122;-66
2022/01/03 04:44:31;;;;;;;13.50;8.38;;;;;;;2.45;100.00;97981.28;1713916;83;21016;-67
2022/01/03 04:46:58;;;;;;;16.07;9.23;;;;;;;2.48;100.00;97983.39;1717246;82;20955;-68
2022/01/03 04:49:26;;;;;;;16.52;9.00;;;;;;;2.52;100.00;97976.80;1712531;83;21107;-68
2022/01/03 04:51:54;;;;;;;14.07;8.65;;;;;;;2.58;100.00;97973.42;1712465;83;21055;-68
2022/01/03 04:54:20;;;;;;;14.47;8.73;;;;;;;2.63;100.00;97969.20;1711726;82;21409;-67
2022/01/03 04:56:47;;;;;;;14.93;8.35;;;;;;;2.66;100.00;97956.38;1713389;82;21064;-65
2022/01/03 04:59:14;;;;;;;13.48;8.50;;;;;;;2.70;100.00;97951.11;1716355;82;21080;-67
2022/01/03 05:01:41;;;;;;;13.65;8.50;;;;;;;2.75;100.00;97942.28;1712922;83;21028;-69
2022/01/03 05:04:09;;;;;;;12.85;7.85;;;;;;;2.80;100.00;97942.72;1712438;82;21544;-67
2022/01/03 05:06:35;;;;;;;15.45;9.18;;;;;;;2.86;100.00;97939.34;1717758;83;21488;-67
2022/01/03 05:09:05;;;;;;;16.32;9.25;;;;;;;2.87;100.00;97943.11;1711084;83;20945;-67
2022/01/03 05:11:33;;;;;;;15.75;9.48;;;;;;;2.90;100.00;97940.34;1684640;83;21059;-68
2022/01/03 05:14:02;;;;;;;14.23;8.63;;;;;;;2.94;100.00;97932.34;1711184;82;21461;-67
2022/01/03 05:16:29;;;;;;;15.35;8.98;;;;;;;2.97;100.00;97933.11;1712732;82;21040;-65
2022/01/03 05:18:56;;;;;;;13.30;8.33;;;;;;;3.01;100.00;97927.28;1715826;82;21600;-68
2022/01/03 05:21:25;;;;;;;14.28;8.65;;;;;;;3.05;100.00;97924.20;1715315;83;20964;-68
2022/01/03 05:23:51;;;;;;;16.27;8.93;;;;;;;3.07;100.00;97924.68;1711625;82;21005;-68
2022/01/03 05:26:19;;;;;;;15.98;9.58;;;;;;;3.09;100.00;97918.95;1714076;82;21464;-67
2022/01/03 05:28:47;;;;;;;19.67;8.40;;;;;;;3.11;100.00;97926.23;1714282;83;22362;-68
2022/01/03 05:31:14;;;;;;;12.18;8.43;;;;;;;3.12;100.00;97917.75;1711591;82;21102;-68
2022/01/03 05:33:42;;;;;;;14.18;8.45;;;;;;;3.14;100.00;97934.59;1679148;83;21131;-69
2022/01/03 05:36:09;;;;;;;14.28;8.13;;;;;;;3.15;100.00;97921.79;1684938;83;21020;-66
2022/01/03 05:38:38;;;;;;;18.10;9.48;;;;;;;3.15;99.94;97923.96;1713893;83;21513;-69
2022/01/03 05:41:05;;;;;;;15.68;9.63;;;;;;;3.18;99.90;97925.80;1714745;83;21539;-69
2022/01/03 05:43:32;;;;;;;14.58;9.20;;;;;;;3.20;99.79;97923.58;1719339;83;21192;-69
2022/01/03 05:46:02;;;;;;;13.15;9.20;;;;;;;3.21;99.72;97919.18;1716409;82;21028;-67
2022/01/03 05:48:29;;;;;;;15.35;9.03;;;;;;;3.22;99.63;97920.80;1711719;83;20965;-68
2022/01/03 05:50:58;;;;;;;16.17;10.08;;;;;;;3.23;99.59;97920.23;1715815;83;21102;-68
2022/01/03 05:53:26;;;;;;;14.28;9.38;;;;;;;3.24;99.55;97915.83;1715657;82;21082;-67
2022/01/03 05:55:55;;;;;;;16.73;9.05;;;;;;;3.25;99.49;97916.64;1710863;83;20992;-69
2022/01/03 05:58:23;;;;;;;17.15;8.48;;;;;;;3.25;99.42;97912.02;1716579;83;20908;-66
2022/01/03 06:00:49;;;;;;;15.05;9.03;;;;;;;3.26;99.38;97910.08;1712842;82;21025;-68
2022/01/03 06:03:19;;;;;;;12.47;8.90;;;;;;;3.27;99.36;97914.42;1713345;83;21041;-69
2022/01/03 06:08:29;;;;;;;13.28;9.13;;;;;;;3.27;99.43;97913.06;1712078;82;21398;-68
2022/01/03 06:10:57;;;;;;;13.13;7.90;;;;;;;3.28;99.51;97914.66;1713353;83;21608;-69
2022/01/03 06:13:26;;;;;;;12.45;8.25;;;;;;;3.32;99.56;97915.66;1710973;83;21504;-69
2022/01/03 06:15:55;;;;;;;14.90;8.70;;;;;;;3.36;99.47;97913.13;1716852;82;21531;-69
2022/01/03 06:18:22;;;;;;;16.93;9.15;;;;;;;3.37;99.41;97914.17;1713430;82;21052;-69
2022/01/03 06:20:51;;;;;;;13.68;8.08;;;;;;;3.40;99.55;97914.91;1712546;82;21551;-65
2022/01/03 06:23:20;;;;;;;13.50;8.15;;;;;;;3.47;99.62;97918.55;1712173;82;20941;-69
2022/01/03 06:25:47;;;;;;;14.30;8.63;;;;;;;3.51;99.61;97902.39;1684973;82;21024;-68
2022/01/03 06:28:17;;;;;;;14.35;8.53;;;;;;;3.55;99.56;97903.34;1714224;83;21576;-68
2022/01/03 06:30:44;;;;;;;15.03;7.83;;;;;;;3.60;99.57;97902.44;1715520;83;21034;-68
2022/01/03 06:33:12;;;;;;;12.55;8.18;;;;;;;3.65;99.52;97896.27;1713996;83;21215;-69
2022/01/03 06:35:41;;;;;;;11.90;7.65;;;;;;;3.68;99.42;97894.05;1713912;83;21064;-66
2022/01/03 06:38:07;;;;;;;13.20;7.40;;;;;;;3.70;99.42;97895.91;1710632;82;21013;-69
2022/01/03 06:40:35;;;;;;;13.20;7.78;;;;;;;3.71;99.43;97898.31;1688525;83;20981;-68
2022/01/03 06:43:04;;;;;;;14.80;8.18;;;;;;;3.74;99.46;97892.78;1711692;82;20953;-70
2022/01/03 06:45:31;;;;;;;17.05;8.50;;;;;;;3.77;99.51;97898.98;1716513;82;21045;-70
2022/01/03 06:47:58;;;;;;;14.00;7.15;;;;;;;3.81;99.57;97899.95;1715283;83;20980;-70
2022/01/03 06:50:28;;;;;;;11.65;7.35;;;;;;;3.87;99.56;97906.07;1711912;83;21004;-70
2022/01/03 06:52:55;;;;;;;13.35;7.03;;;;;;;3.92;99.35;97907.84;1716116;82;21043;-70
2022/01/03 06:55:23;;;;;;;11.25;7.33;;;;;;;3.94;99.36;97909.12;1711020;82;20968;-70
2022/01/03 06:57:50;;;;;;;11.90;7.62;;;;;;;3.96;99.35;97910.20;1718488;82;21135;-70
2022/01/03 07:00:17;;;;;;;12.03;7.75;;;;;;;3.99;99.38;97915.80;1710615;82;21068;-69
2022/01/03 07:02:43;;;;;;;11.10;6.70;;;;;;;4.04;99.30;97908.61;1710059;83;20985;-68
2022/01/03 07:05:10;;;;;;;12.63;7.30;;;;;;;4.06;99.20;97911.25;1712781;83;21518;-70
2022/01/03 07:07:38;;;;;;;11.10;6.87;;;;;;;4.08;99.12;97915.83;1715879;82;21040;-70
2022/01/03 07:10:06;;;;;;;10.55;6.45;;;;;;;4.11;99.13;97916.55;1714634;83;21481;-70
2022/01/03 07:12:34;;;;;;;12.90;7.37;;;;;;;4.15;99.05;97908.55;1710885;82;21016;-70
2022/01/03 07:20:17;;;;;;;13.20;7.53;;;;;;;4.22;98.75;97899.91;1714413;83;21048;-70
2022/01/03 07:22:44;;;;;;;9.83;6.50;;;;;;;4.23;98.67;97907.77;1712474;82;21510;-69
2022/01/03 07:25:10;;;;;;;13.80;7.72;;;;;;;4.25;98.63;97909.62;1711881;83;20961;-70
2022/01/03 07:27:37;;;;;;;13.85;8.58;;;;;;;4.28;98.54;97906.02;1713298;83;21163;-70
2022/01/03 07:30:05;;;;;;;13.90;7.85;;;;;;;4.30;98.41;97902.42;1712824;83;21557;-71
2022/01/03 07:32:34;;;;;;;14.40;8.30;;;;;;;4.31;98.39;97902.11;1711104;82;20969;-68
2022/01/03 07:35:03;;;;;;;14.28;8.48;;;;;;;4.34;98.27;97892.47;1712993;82;21087;-69
2022/01/03 07:37:33;;;;;;;13.48;8.08;;;;;;;4.37;98.14;97883.09;1714296;82;20905;-69
2022/01/03 07:40:00;;;;;;;16.45;9.18;;;;;;;4.39;98.10;97878.69;1715170;82;21465;-68
2022/01/03 07:42:26;;;;;;;14.90;8.60;;;;;;;4.41;98.00;97878.36;1717203;82;21079;-70
2022/01/03 07:44:55;;;;;;;13.43;8.10;;;;;;;4.44;97.94;97877.17;1719069;82;20944;-69
2022/01/03 07:47:24;;;;;;;16.48;9.53;;;;;;;4.48;97.84;97873.25;1710820;82;21190;-70
2022/01/03 07:49:52;;;;;;;12.05;7.67;;;;;;;4.53;97.85;97867.63;1715942;82;20944;-67
2022/01/03 07:52:18;;;;;;;18.35;9.95;;;;;;;4.56;97.80;97865.63;1712838;82;20960;-68
2022/01/03 07:54:49;;;;;;;20.25;9.53;;;;;;;4.61;97.79;97866.02;1713013;82;21040;-69
2022/01/03 07:57:15;;;;;;;19.40;10.30;;;;;;;4.65;97.69;97862.09;1712030;82;20913;-68
2022/01/03 07:59:49;;;;;;;15.08;8.80;;;;;;;4.70;97.54;97860.57;1716877;82;21048;-68
2022/01/03 08:02:16;;;;;;;21.17;10.88;;;;;;;4.75;97.44;97858.48;1713304;82;21514;-68
2022/01/03 08:04:43;;;;;;;19.45;10.28;;;;;;;4.81;97.28;97858.33;1713501;82;20999;-70
2022/01/03 08:07:11;;;;;;;13.78;8.55;;;;;;;4.86;97.17;97853.48;1715937;82;21180;-70
2022/01/03 08:09:42;;;;;;;8.03;5.78;;;;;;;4.92;97.03;97851.41;1717197;82;20999;-70
2022/01/03 08:12:10;;;;;;;16.50;7.80;;;;;;;4.98;96.83;97854.78;1709858;82;21303;-69
2022/01/03 08:14:36;;;;;;;11.30;6.85;;;;;;;5.02;96.68;97856.27;1713713;82;21005;-70
2022/01/03 08:17:03;;;;;;;14.35;7.60;;;;;;;5.04;96.60;97846.66;1711814;82;21512;-71
2022/01/03 08:19:29;;;;;;;12.18;7.80;;;;;;;5.11;96.56;97848.33;1711918;82;20977;-65
2022/01/03 08:21:55;;;;;;;12.63;7.20;;;;;;;5.20;96.45;97851.60;1713450;83;20973;-69
2022/01/03 08:24:22;;;;;;;17.07;7.87;;;;;;;5.27;96.24;97850.52;1714843;83;21131;-71
2022/01/03 08:26:54;;;;;;;16.97;7.95;;;;;;;5.32;96.13;97848.98;1715244;82;21016;-69
2022/01/03 08:29:24;;;;;;;14.13;7.55;;;;;;;5.36;95.78;97844.48;1710218;82;21094;-70
2022/01/03 08:31:51;;;;;;;13.22;7.10;;;;;;;5.43;95.46;97843.16;1688222;83;21115;-69
2022/01/03 08:34:19;;;;;;;9.98;6.30;;;;;;;5.46;95.25;97832.95;1705817;83;20945;-68
2022/01/03 08:36:47;;;;;;;12.98;7.50;;;;;;;5.51;94.94;97837.45;1713004;83;20993;-69
2022/01/03 08:39:13;;;;;;;15.05;8.15;;;;;;;5.55;94.65;97829.63;1713608;82;20984;-71
2022/01/03 08:41:42;;;;;;;20.45;8.38;;;;;;;5.58;94.55;97827.60;1684395;82;20973;-71
2022/01/03 08:44:08;;;;;;;18.48;8.30;;;;;;;5.63;94.32;97823.09;1683934;83;20961;-71
2022/01/03 08:46:35;;;;;;;14.18;7.67;;;;;;;5.65;94.21;97820.81;1713937;82;20993;-70
2022/01/03 08:49:01;;;;;;;14.47;8.05;;;;;;;5.71;93.88;97816.78;1710818;83;21466;-71
2022/01/03 08:51:30;;;;;;;16.02;8.10;;;;;;;5.73;93.67;97810.43;1710623;82;21442;-70
2022/01/03 08:53:59;;;;;;;19.15;9.40;;;;;;;5.76;93.51;97805.67;1713570;82;21596;-69
2022/01/03 08:56:25;;;;;;;16.17;7.08;;;;;;;5.77;93.26;97808.63;1715732;83;21028;-70
2022/01/03 08:58:54;;;;;;;22.35;9.68;;;;;;;5.79;92.88;97796.80;1715213;83;21154;-68
2022/01/03 09:01:30;;;;;;;25.88;9.95;;;;;;;5.79;92.68;97795.99;1713965;82;21112;-68
2022/01/03 09:03:58;;;;;;;22.67;9.28;;;;;;;5.78;92.47;97787.56;1713298;82;21013;-69
2022/01/03 09:06:28;;;;;;;20.10;9.10;;;;;;;5.81;92.35;97781.44;1714083;82;21099;-68
2022/01/03 09:08:55;;;;;;;18.35;7.67;;;;;;;5.82;92.27;97781.10;1717402;83;21024;-68
2022/01/03 09:11:24;;;;;;;15.72;7.10;;;;;;;5.84;92.21;97778.04;1711395;82;21100;-68
2022/01/03 09:13:50;;;;;;;16.17;7.87;;;;;;;5.86;91.98;97774.41;1715429;82;21584;-70
2022/01/03 09:16:19;;;;;;;18.50;8.40;;;;;;;5.88;91.89;97763.14;1715168;82;21476;-72
2022/01/03 09:18:52;;;;;;;16.90;8.35;;;;;;;5.88;91.93;97761.22;1713230;83;21004;-69
2022/01/03 09:21:26;;;;;;;14.07;7.45;;;;;;;5.89;91.95;97751.87;1712441;82;20981;-72
2022/01/03 09:29:23;;;;;;;16.73;7.65;;;;;;;5.93;91.77;97743.26;1714719;82;20984;-70
2022/01/03 09:31:49;;;;;;;11.85;7.00;;;;;;;5.94;91.59;97733.91;1716979;82;21007;-71
2022/01/03 09:34:15;;;;;;;12.15;7.83;;;;;;;5.95;91.39;97727.30;1715282;82;21004;-70
2022/01/03 09:36:42;;;;;;;13.72;7.72;;;;;;;5.94;91.36;97717.51;1714901;82;20991;-70
2022/01/03 09:39:09;;;;;;;15.32;7.22;;;;;;;5.94;91.23;97718.06;1711263;82;21720;-70
2022/01/03 09:41:40;;;;;;;12.20;7.03;;;;;;;5.95;91.20;97718.31;1713925;83;21033;-70
2022/01/03 09:44:11;;;;;;;18.30;8.55;;;;;;;5.93;91.19;97713.74;1713630;82;21059;-71
2022/01/03 09:46:41;;;;;;;14.40;8.15;;;;;;;5.93;91.10;97711.81;1716460;82;21079;-71
2022/01/03 09:49:12;;;;;;;13.22;7.12;;;;;;;5.95;90.96;97704.64;1711795;82;20992;-71
2022/01/03 09:51:42;;;;;;;10.23;6.90;;;;;;;5.98;90.96;97705.34;1713248;82;21075;-69
2022/01/03 09:54:11;;;;;;;11.43;5.87;;;;;;;6.06;90.98;97696.30;1715152;82;21122;-72
2022/01/03 09:56:40;;;;;;;13.83;6.58;;;;;;;6.13;90.75;97699.05;1717586;82;20972;-71
2022/01/03 09:59:07;;;;;;;11.40;6.90;;;;;;;6.21;90.52;97690.77;1714209;83;21059;-72
2022/01/03 10:01:33;;;;;;;11.28;6.47;;;;;;;6.32;90.41;97697.20;1714891;82;21007;-69
2022/01/03 10:04:00;;;;;;;10.23;5.80;;;;;;;6.44;90.31;97693.15;1693814;83;22100;-71
2022/01/03 10:06:29;;;;;;;11.08;6.05;;;;;;;6.55;89.73;97681.78;1706422;82;21393;-70
2022/01/03 10:09:00;;;;;;;10.80;6.50;;;;;;;6.61;89.09;97681.78;1713519;82;20967;-72
2022/01/03 10:11:27;;;;;;;10.35;6.12;;;;;;;6.66;88.67;97671.19;1712970;82;21020;-72
2022/01/03 10:14:03;;;;;;;9.43;5.62;;;;;;;6.71;88.72;97679.18;1711176;82;20905;-69
2022/01/03 10:16:35;;;;;;;13.68;5.78;;;;;;;6.76;88.58;97662.53;1685704;82;20941;-71
2022/01/03 10:19:04;;;;;;;10.63;6.15;;;;;;;6.82;88.23;97665.27;1715393;83;20916;-69
2022/01/03 10:21:42;;;;;;;13.58;6.60;;;;;;;6.88;87.73;97662.31;1715877;83;21007;-70
2022/01/03 10:24:09;;;;;;;9.68;5.22;;;;;;;6.92;87.63;97647.63;1708864;82;20999;-70
2022/01/03 10:26:37;;;;;;;9.78;5.15;;;;;;;6.97;87.10;97662.22;1713448;82;21020;-72
2022/01/03 10:29:20;;;;;;;12.18;5.40;;;;;;;6.98;86.68;97649.55;1715105;82;22161;-69
2022/01/03 10:31:51;;;;;;;12.73;5.62;;;;;;;6.99;86.50;97648.42;1714558;83;21031;-70
2022/01/03 10:34:22;;;;;;;10.68;5.12;;;;;;;7.00;86.43;97654.12;1715902;83;21461;-68
2022/01/03 10:36:50;;;;;;;13.85;6.05;;;;;;;7.03;86.22;97651.25;1716587;82;20998;-70
2022/01/03 10:39:23;;;;;;;14.80;6.25;;;;;;;7.05;86.29;97647.05;1715119;82;21534;-69
2022/01/03 10:42:17;;;;;;;13.00;6.62;;;;;;;7.06;86.13;97647.85;1710209;82;21120;-68
2022/01/03 10:44:45;;;;;;;10.93;6.17;;;;;;;7.09;85.79;97650.47;1710105;82;21142;-69
2022/01/03 10:47:15;;;;;;;10.68;5.92;;;;;;;7.09;85.60;97640.88;1715743;82;21592;-71
2022/01/03 10:49:44;;;;;;;10.98;5.37;;;;;;;7.06;85.26;97643.74;1683126;83;21096;-72
2022/01/03 10:52:18;;;;;;;9.93;4.90;;;;;;;7.05;85.27;97646.23;1711880;82;21103;-72
2022/01/03 10:55:13;;;;;;;7.97;4.70;;;;;;;7.02;85.18;97653.21;1715747;83;21912;-69
2022/01/03 10:57:59;;;;;;;10.58;5.25;;;;;;;7.00;85.13;97648.64;1682734;83;20941;-70
2022/01/03 11:00:39;;;;;;;7.83;4.55;;;;;;;6.97;85.04;97645.78;1713302;82;21003;-71
2022/01/03 11:03:30;;;;;;;9.33;5.40;;;;;;;6.97;84.95;97645.22;1715292;83;20972;-71
2022/01/03 11:06:14;;;;;;;18.70;5.47;;;;;;;6.97;85.01;97637.56;1715473;83;20997;-72
2022/01/03 11:11:15;;;;;;;12.03;5.42;;;;;;;7.00;84.84;97634.14;1717693;82;20987;-71
2022/01/03 11:13:47;;;;;;;12.35;5.92;;;;;;;7.00;84.48;97630.84;1665571;82;21028;-71
2022/01/03 11:16:18;;;;;;;8.48;5.15;;;;;;;7.00;84.39;97630.84;1711751;83;21540;-72
2022/01/03 11:18:47;;;;;;;11.22;4.62;;;;;;;6.98;84.30;97626.86;1714460;82;21087;-72
2022/01/03 11:21:24;;;;;;;12.95;5.28;;;;;;;6.95;84.15;97618.74;1715926;82;21541;-71
2022/01/03 11:24:15;;;;;;;13.28;5.92;;;;;;;6.92;84.15;97621.61;1714382;82;20927;-71
2022/01/03 11:26:48;;;;;;;9.73;4.72;;;;;;;6.92;84.08;97612.59;1713723;83;20996;-69
2022/01/03 11:29:15;;;;;;;10.13;4.35;;;;;;;6.91;83.76;97613.71;1713344;82;21035;-71
2022/01/03 11:31:43;;;;;;;10.32;4.92;;;;;;;6.88;83.68;97605.63;1715341;82;22066;-71
2022/01/03 11:34:13;;;;;;;8.08;4.72;;;;;;;6.88;83.60;97622.05;1711303;82;21562;-71
2022/01/03 11:36:42;;;;;;;10.80;4.75;;;;;;;6.88;83.53;97618.51;1711954;82;21023;-73
2022/01/03 11:39:12;;;;;;;8.03;4.30;;;;;;;6.87;83.43;97607.34;1713548;82;20931;-71
2022/01/03 11:41:42;;;;;;;11.73;4.53;;;;;;;6.86;83.34;97605.16;1691828;83;21005;-72
2022/01/03 11:44:12;;;;;;;11.50;5.25;;;;;;;6.87;83.30;97608.70;1715187;83;21088;-71
2022/01/03 11:46:43;;;;;;;11.70;4.37;;;;;;;6.88;83.11;97600.15;1713120;82;21172;-69
2022/01/03 11:49:10;;;;;;;7.60;4.37;;;;;;;6.86;82.89;97608.49;1715536;82;21059;-71
2022/01/03 11:51:41;;;;;;;9.18;4.40;;;;;;;6.84;82.90;97597.08;1713483;82;20984;-70
2022/01/03 11:54:09;;;;;;;11.33;4.20;;;;;;;6.81;82.89;97599.91;1714928;82;21440;-72
2022/01/03 11:56:42;;;;;;;11.00;5.50;;;;;;;6.81;82.83;97598.55;1716229;82;21060;-72
2022/01/03 12:04:41;;;;;;;15.50;5.95;;;;;;;6.84;82.83;97597.85;1715888;82;20976;-68
2022/01/03 12:07:14;;;;;;;12.03;6.00;;;;;;;6.85;82.82;97594.55;1715831;83;21039;-69
2022/01/03 12:09:48;;;;;;;;;;;;;;;6.84;82.83;97597.08;1716235;82;21005;-71